sensor_id;sensor_type;location;lat;lon;timestamp;P1;durP1;ratioP1;P2;durP2;ratioP2
72053;SDS011;59918;51.280;7.950;2022-08-14T00:00:58;9.23;;;8.43;;
72053;SDS011;59918;51.280;7.950;2022-08-14T00:03:27;9.23;;;8.32;;
72053;SDS011;59918;51.280;7.950;2022-08-14T00:05:55;8.60;;;7.82;;
72053;SDS011;59918;51.280;7.950;2022-08-14T00:08:21;8.98;;;7.90;;
72053;SDS011;59918;51.280;7.950;2022-08-14T00:10:46;9.40;;;8.40;;
72053;SDS011;59918;51.280;7.950;2022-08-14T00:13:12;9.75;;;8.00;;
72053;SDS011;59918;51.280;7.950;2022-08-14T00:15:40;10.77;;;8.82;;
72053;SDS011;59918;51.280;7.950;2022-08-14T00:18:07;10.20;;;9.30;;
72053;SDS011;59918;51.280;7.950;2022-08-14T00:20:35;10.25;;;9.30;;
72053;SDS011;59918;51.280;7.950;2022-08-14T00:23:04;10.45;;;9.57;;
72053;SDS011;59918;51.280;7.950;2022-08-14T00:25:30;10.07;;;9.10;;
72053;SDS011;59918;51.280;7.950;2022-08-14T00:27:56;9.98;;;9.18;;
72053;SDS011;59918;51.280;7.950;2022-08-14T00:30:21;10.80;;;9.80;;
72053;SDS011;59918;51.280;7.950;2022-08-14T00:32:46;11.13;;;10.10;;
72053;SDS011;59918;51.280;7.950;2022-08-14T00:35:12;9.57;;;8.73;;
72053;SDS011;59918;51.280;7.950;2022-08-14T00:37:38;9.48;;;8.55;;
72053;SDS011;59918;51.280;7.950;2022-08-14T00:40:08;10.07;;;9.18;;
72053;SDS011;59918;51.280;7.950;2022-08-14T00:42:35;11.50;;;10.15;;
72053;SDS011;59918;51.280;7.950;2022-08-14T00:45:00;10.55;;;9.48;;
72053;SDS011;59918;51.280;7.950;2022-08-14T00:47:25;10.98;;;10.07;;
72053;SDS011;59918;51.280;7.950;2022-08-14T00:49:51;14.90;;;10.50;;
72053;SDS011;59918;51.280;7.950;2022-08-14T00:52:18;12.77;;;9.55;;
72053;SDS011;59918;51.280;7.950;2022-08-14T00:54:44;10.85;;;9.85;;
72053;SDS011;59918;51.280;7.950;2022-08-14T00:57:11;10.88;;;9.70;;
72053;SDS011;59918;51.280;7.950;2022-08-14T00:59:36;10.95;;;9.82;;
72053;SDS011;59918;51.280;7.950;2022-08-14T01:02:02;11.77;;;9.77;;
72053;SDS011;59918;51.280;7.950;2022-08-14T01:04:28;9.80;;;8.90;;
72053;SDS011;59918;51.280;7.950;2022-08-14T01:06:54;12.88;;;10.15;;
72053;SDS011;59918;51.280;7.950;2022-08-14T01:09:19;12.20;;;10.93;;
72053;SDS011;59918;51.280;7.950;2022-08-14T01:11:45;11.48;;;10.45;;
72053;SDS011;59918;51.280;7.950;2022-08-14T01:14:10;13.68;;;11.18;;
72053;SDS011;59918;51.280;7.950;2022-08-14T01:16:36;11.23;;;10.10;;
72053;SDS011;59918;51.280;7.950;2022-08-14T01:19:01;11.30;;;10.32;;
72053;SDS011;59918;51.280;7.950;2022-08-14T01:24:00;11.18;;;10.25;;
72053;SDS011;59918;51.280;7.950;2022-08-14T01:26:26;11.77;;;10.07;;
72053;SDS011;59918;51.280;7.950;2022-08-14T01:28:53;10.43;;;9.35;;
72053;SDS011;59918;51.280;7.950;2022-08-14T01:31:21;11.05;;;10.15;;
72053;SDS011;59918;51.280;7.950;2022-08-14T01:33:48;11.00;;;9.90;;
72053;SDS011;59918;51.280;7.950;2022-08-14T01:36:16;12.77;;;10.40;;
72053;SDS011;59918;51.280;7.950;2022-08-14T01:38:43;10.95;;;9.85;;
72053;SDS011;59918;51.280;7.950;2022-08-14T01:41:10;12.10;;;10.90;;
72053;SDS011;59918;51.280;7.950;2022-08-14T01:46:11;11.85;;;10.63;;
72053;SDS011;59918;51.280;7.950;2022-08-14T01:48:37;11.90;;;10.77;;
72053;SDS011;59918;51.280;7.950;2022-08-14T01:51:04;12.40;;;11.10;;
72053;SDS011;59918;51.280;7.950;2022-08-14T01:53:30;12.68;;;11.52;;
72053;SDS011;59918;51.280;7.950;2022-08-14T01:55:56;12.00;;;10.90;;
72053;SDS011;59918;51.280;7.950;2022-08-14T01:58:24;14.50;;;11.18;;
72053;SDS011;59918;51.280;7.950;2022-08-14T02:00:50;12.43;;;11.20;;
72053;SDS011;59918;51.280;7.950;2022-08-14T02:03:17;12.60;;;11.45;;
72053;SDS011;59918;51.280;7.950;2022-08-14T02:05:42;12.05;;;10.85;;
72053;SDS011;59918;51.280;7.950;2022-08-14T02:08:07;14.45;;;11.98;;
72053;SDS011;59918;51.280;7.950;2022-08-14T02:10:32;11.68;;;10.48;;
72053;SDS011;59918;51.280;7.950;2022-08-14T02:12:58;12.30;;;11.15;;
72053;SDS011;59918;51.280;7.950;2022-08-14T02:15:23;13.15;;;11.85;;
72053;SDS011;59918;51.280;7.950;2022-08-14T02:17:49;12.13;;;11.13;;
72053;SDS011;59918;51.280;7.950;2022-08-14T02:20:14;11.90;;;10.90;;
72053;SDS011;59918;51.280;7.950;2022-08-14T02:22:40;12.95;;;11.48;;
72053;SDS011;59918;51.280;7.950;2022-08-14T02:25:05;12.15;;;11.10;;
72053;SDS011;59918;51.280;7.950;2022-08-14T02:27:31;11.25;;;10.25;;
72053;SDS011;59918;51.280;7.950;2022-08-14T02:29:56;14.70;;;11.60;;
72053;SDS011;59918;51.280;7.950;2022-08-14T02:32:21;14.88;;;11.13;;
72053;SDS011;59918;51.280;7.950;2022-08-14T02:34:47;12.07;;;10.95;;
72053;SDS011;59918;51.280;7.950;2022-08-14T02:37:12;12.18;;;11.07;;
72053;SDS011;59918;51.280;7.950;2022-08-14T02:39:41;12.23;;;11.10;;
72053;SDS011;59918;51.280;7.950;2022-08-14T02:42:09;16.20;;;11.18;;
72053;SDS011;59918;51.280;7.950;2022-08-14T02:44:38;12.80;;;11.27;;
72053;SDS011;59918;51.280;7.950;2022-08-14T02:47:05;11.70;;;10.63;;
72053;SDS011;59918;51.280;7.950;2022-08-14T02:49:31;12.23;;;10.98;;
72053;SDS011;59918;51.280;7.950;2022-08-14T02:51:56;11.70;;;10.50;;
72053;SDS011;59918;51.280;7.950;2022-08-14T02:54:22;13.73;;;12.25;;
72053;SDS011;59918;51.280;7.950;2022-08-14T02:56:49;13.32;;;11.88;;
72053;SDS011;59918;51.280;7.950;2022-08-14T02:59:14;13.57;;;12.35;;
72053;SDS011;59918;51.280;7.950;2022-08-14T03:01:40;13.52;;;11.05;;
72053;SDS011;59918;51.280;7.950;2022-08-14T03:04:09;13.88;;;12.50;;
72053;SDS011;59918;51.280;7.950;2022-08-14T03:06:35;15.07;;;12.70;;
72053;SDS011;59918;51.280;7.950;2022-08-14T03:09:01;13.02;;;11.85;;
72053;SDS011;59918;51.280;7.950;2022-08-14T03:11:26;12.80;;;11.63;;
72053;SDS011;59918;51.280;7.950;2022-08-14T03:13:52;13.88;;;12.32;;
72053;SDS011;59918;51.280;7.950;2022-08-14T03:16:21;13.38;;;12.18;;
72053;SDS011;59918;51.280;7.950;2022-08-14T03:18:49;13.57;;;11.52;;
72053;SDS011;59918;51.280;7.950;2022-08-14T03:21:17;13.32;;;11.93;;
72053;SDS011;59918;51.280;7.950;2022-08-14T03:23:46;14.30;;;11.98;;
72053;SDS011;59918;51.280;7.950;2022-08-14T03:26:17;13.43;;;12.02;;
72053;SDS011;59918;51.280;7.950;2022-08-14T03:28:47;15.13;;;12.32;;
72053;SDS011;59918;51.280;7.950;2022-08-14T03:31:15;13.25;;;12.02;;
72053;SDS011;59918;51.280;7.950;2022-08-14T03:33:41;12.68;;;11.45;;
72053;SDS011;59918;51.280;7.950;2022-08-14T03:36:08;13.45;;;12.07;;
72053;SDS011;59918;51.280;7.950;2022-08-14T03:38:36;13.07;;;11.73;;
72053;SDS011;59918;51.280;7.950;2022-08-14T03:41:02;13.25;;;11.07;;
72053;SDS011;59918;51.280;7.950;2022-08-14T03:43:28;13.30;;;11.95;;
72053;SDS011;59918;51.280;7.950;2022-08-14T03:45:53;13.65;;;12.32;;
72053;SDS011;59918;51.280;7.950;2022-08-14T03:48:18;12.88;;;11.43;;
72053;SDS011;59918;51.280;7.950;2022-08-14T03:50:44;13.25;;;11.85;;
72053;SDS011;59918;51.280;7.950;2022-08-14T03:53:10;13.27;;;12.07;;
72053;SDS011;59918;51.280;7.950;2022-08-14T03:55:36;13.65;;;12.35;;
72053;SDS011;59918;51.280;7.950;2022-08-14T03:58:01;14.02;;;12.40;;
72053;SDS011;59918;51.280;7.950;2022-08-14T04:00:26;12.93;;;11.50;;
72053;SDS011;59918;51.280;7.950;2022-08-14T04:02:52;15.45;;;13.23;;
72053;SDS011;59918;51.280;7.950;2022-08-14T04:05:17;16.00;;;13.20;;
72053;SDS011;59918;51.280;7.950;2022-08-14T04:07:43;14.52;;;13.13;;
72053;SDS011;59918;51.280;7.950;2022-08-14T04:10:08;14.52;;;12.90;;
72053;SDS011;59918;51.280;7.950;2022-08-14T04:12:33;14.60;;;13.15;;
72053;SDS011;59918;51.280;7.950;2022-08-14T04:14:59;14.50;;;13.00;;
72053;SDS011;59918;51.280;7.950;2022-08-14T04:17:24;14.18;;;12.63;;
72053;SDS011;59918;51.280;7.950;2022-08-14T04:19:52;13.95;;;12.50;;
72053;SDS011;59918;51.280;7.950;2022-08-14T04:22:17;14.77;;;12.50;;
72053;SDS011;59918;51.280;7.950;2022-08-14T04:24:42;14.57;;;13.18;;
72053;SDS011;59918;51.280;7.950;2022-08-14T04:27:08;14.80;;;13.40;;
72053;SDS011;59918;51.280;7.950;2022-08-14T04:29:37;15.63;;;12.63;;
72053;SDS011;59918;51.280;7.950;2022-08-14T04:32:09;13.85;;;12.57;;
72053;SDS011;59918;51.280;7.950;2022-08-14T04:34:35;19.02;;;13.68;;
72053;SDS011;59918;51.280;7.950;2022-08-14T04:37:01;15.90;;;13.55;;
72053;SDS011;59918;51.280;7.950;2022-08-14T04:39:26;14.05;;;12.05;;
72053;SDS011;59918;51.280;7.950;2022-08-14T04:41:52;14.23;;;12.85;;
72053;SDS011;59918;51.280;7.950;2022-08-14T04:44:17;15.07;;;12.85;;
72053;SDS011;59918;51.280;7.950;2022-08-14T04:46:43;14.65;;;13.18;;
72053;SDS011;59918;51.280;7.950;2022-08-14T04:49:09;14.65;;;12.57;;
72053;SDS011;59918;51.280;7.950;2022-08-14T04:51:34;16.25;;;13.68;;
72053;SDS011;59918;51.280;7.950;2022-08-14T04:54:00;15.38;;;13.82;;
72053;SDS011;59918;51.280;7.950;2022-08-14T04:56:25;17.65;;;13.38;;
72053;SDS011;59918;51.280;7.950;2022-08-14T04:58:52;18.48;;;13.68;;
72053;SDS011;59918;51.280;7.950;2022-08-14T05:01:20;14.43;;;12.82;;
72053;SDS011;59918;51.280;7.950;2022-08-14T05:03:45;14.52;;;13.00;;
72053;SDS011;59918;51.280;7.950;2022-08-14T05:06:11;15.23;;;13.73;;
72053;SDS011;59918;51.280;7.950;2022-08-14T05:08:37;14.57;;;12.85;;
72053;SDS011;59918;51.280;7.950;2022-08-14T05:11:04;15.40;;;13.75;;
72053;SDS011;59918;51.280;7.950;2022-08-14T05:13:31;15.68;;;14.07;;
72053;SDS011;59918;51.280;7.950;2022-08-14T05:15:57;16.88;;;13.93;;
72053;SDS011;59918;51.280;7.950;2022-08-14T05:18:25;16.30;;;14.48;;
72053;SDS011;59918;51.280;7.950;2022-08-14T05:20:55;15.52;;;13.93;;
72053;SDS011;59918;51.280;7.950;2022-08-14T05:23:23;16.63;;;13.57;;
72053;SDS011;59918;51.280;7.950;2022-08-14T05:25:50;15.27;;;13.68;;
72053;SDS011;59918;51.280;7.950;2022-08-14T05:28:20;16.90;;;14.85;;
72053;SDS011;59918;51.280;7.950;2022-08-14T05:30:47;16.38;;;14.77;;
72053;SDS011;59918;51.280;7.950;2022-08-14T05:33:13;15.48;;;13.68;;
72053;SDS011;59918;51.280;7.950;2022-08-14T05:35:39;18.40;;;13.82;;
72053;SDS011;59918;51.280;7.950;2022-08-14T05:38:08;16.38;;;14.20;;
72053;SDS011;59918;51.280;7.950;2022-08-14T05:40:37;15.25;;;13.65;;
72053;SDS011;59918;51.280;7.950;2022-08-14T05:43:23;16.27;;;14.00;;
72053;SDS011;59918;51.280;7.950;2022-08-14T05:45:51;15.35;;;13.85;;
72053;SDS011;59918;51.280;7.950;2022-08-14T05:48:16;16.70;;;14.30;;
72053;SDS011;59918;51.280;7.950;2022-08-14T05:50:41;21.95;;;15.00;;
72053;SDS011;59918;51.280;7.950;2022-08-14T05:53:07;15.63;;;14.15;;
72053;SDS011;59918;51.280;7.950;2022-08-14T05:55:32;16.13;;;14.35;;
72053;SDS011;59918;51.280;7.950;2022-08-14T05:57:58;16.52;;;14.82;;
72053;SDS011;59918;51.280;7.950;2022-08-14T06:00:27;16.75;;;15.13;;
72053;SDS011;59918;51.280;7.950;2022-08-14T06:02:55;18.45;;;14.65;;
72053;SDS011;59918;51.280;7.950;2022-08-14T06:05:21;16.05;;;14.43;;
72053;SDS011;59918;51.280;7.950;2022-08-14T06:07:47;15.68;;;13.60;;
72053;SDS011;59918;51.280;7.950;2022-08-14T06:10:13;17.02;;;14.63;;
72053;SDS011;59918;51.280;7.950;2022-08-14T06:12:38;14.25;;;12.95;;
72053;SDS011;59918;51.280;7.950;2022-08-14T06:15:04;16.90;;;15.20;;
72053;SDS011;59918;51.280;7.950;2022-08-14T06:17:31;16.52;;;14.93;;
72053;SDS011;59918;51.280;7.950;2022-08-14T06:19:59;15.90;;;13.55;;
72053;SDS011;59918;51.280;7.950;2022-08-14T06:22:24;15.70;;;13.30;;
72053;SDS011;59918;51.280;7.950;2022-08-14T06:24:49;14.82;;;12.05;;
72053;SDS011;59918;51.280;7.950;2022-08-14T06:27:14;14.20;;;12.73;;
72053;SDS011;59918;51.280;7.950;2022-08-14T06:29:40;13.57;;;12.10;;
72053;SDS011;59918;51.280;7.950;2022-08-14T06:32:07;12.98;;;11.70;;
72053;SDS011;59918;51.280;7.950;2022-08-14T06:34:35;13.48;;;12.27;;
72053;SDS011;59918;51.280;7.950;2022-08-14T06:37:05;12.18;;;11.05;;
72053;SDS011;59918;51.280;7.950;2022-08-14T06:39:31;13.48;;;12.07;;
72053;SDS011;59918;51.280;7.950;2022-08-14T06:41:56;37.05;;;11.40;;
72053;SDS011;59918;51.280;7.950;2022-08-14T06:44:21;13.80;;;11.43;;
72053;SDS011;59918;51.280;7.950;2022-08-14T06:46:47;12.40;;;11.25;;
72053;SDS011;59918;51.280;7.950;2022-08-14T06:49:12;11.93;;;10.82;;
72053;SDS011;59918;51.280;7.950;2022-08-14T06:51:37;12.23;;;11.02;;
72053;SDS011;59918;51.280;7.950;2022-08-14T06:54:02;13.23;;;11.95;;
72053;SDS011;59918;51.280;7.950;2022-08-14T06:56:28;15.10;;;13.43;;
72053;SDS011;59918;51.280;7.950;2022-08-14T06:58:53;17.63;;;13.77;;
72053;SDS011;59918;51.280;7.950;2022-08-14T07:01:18;12.65;;;11.55;;
72053;SDS011;59918;51.280;7.950;2022-08-14T07:03:43;13.43;;;11.15;;
72053;SDS011;59918;51.280;7.950;2022-08-14T07:06:10;13.00;;;11.80;;
72053;SDS011;59918;51.280;7.950;2022-08-14T07:08:36;12.27;;;10.75;;
72053;SDS011;59918;51.280;7.950;2022-08-14T07:11:02;11.57;;;10.20;;
72053;SDS011;59918;51.280;7.950;2022-08-14T07:13:27;10.80;;;9.70;;
72053;SDS011;59918;51.280;7.950;2022-08-14T07:15:54;9.75;;;8.98;;
72053;SDS011;59918;51.280;7.950;2022-08-14T07:18:24;9.43;;;8.73;;
72053;SDS011;59918;51.280;7.950;2022-08-14T07:20:54;9.57;;;8.70;;
72053;SDS011;59918;51.280;7.950;2022-08-14T07:23:20;10.18;;;9.02;;
72053;SDS011;59918;51.280;7.950;2022-08-14T07:25:46;9.23;;;8.52;;
72053;SDS011;59918;51.280;7.950;2022-08-14T07:28:13;10.57;;;9.27;;
72053;SDS011;59918;51.280;7.950;2022-08-14T07:30:40;9.85;;;8.85;;
72053;SDS011;59918;51.280;7.950;2022-08-14T07:33:07;8.90;;;8.20;;
72053;SDS011;59918;51.280;7.950;2022-08-14T07:35:33;9.43;;;8.65;;
72053;SDS011;59918;51.280;7.950;2022-08-14T07:37:59;8.65;;;7.95;;
72053;SDS011;59918;51.280;7.950;2022-08-14T07:40:25;9.00;;;7.90;;
72053;SDS011;59918;51.280;7.950;2022-08-14T07:42:51;8.88;;;7.53;;
72053;SDS011;59918;51.280;7.950;2022-08-14T07:45:17;9.13;;;8.23;;
72053;SDS011;59918;51.280;7.950;2022-08-14T07:47:42;9.10;;;8.25;;
72053;SDS011;59918;51.280;7.950;2022-08-14T07:50:12;8.57;;;7.82;;
72053;SDS011;59918;51.280;7.950;2022-08-14T07:52:40;8.05;;;7.35;;
72053;SDS011;59918;51.280;7.950;2022-08-14T07:55:07;8.85;;;8.15;;
72053;SDS011;59918;51.280;7.950;2022-08-14T07:57:33;7.88;;;7.28;;
72053;SDS011;59918;51.280;7.950;2022-08-14T07:59:58;7.85;;;7.25;;
72053;SDS011;59918;51.280;7.950;2022-08-14T08:02:23;8.93;;;8.23;;
72053;SDS011;59918;51.280;7.950;2022-08-14T08:04:54;7.20;;;6.70;;
72053;SDS011;59918;51.280;7.950;2022-08-14T08:07:19;8.00;;;7.20;;
72053;SDS011;59918;51.280;7.950;2022-08-14T08:09:47;7.72;;;7.13;;
72053;SDS011;59918;51.280;7.950;2022-08-14T08:12:13;6.85;;;6.40;;
72053;SDS011;59918;51.280;7.950;2022-08-14T08:14:39;7.32;;;6.72;;
72053;SDS011;59918;51.280;7.950;2022-08-14T08:17:05;6.80;;;6.38;;
72053;SDS011;59918;51.280;7.950;2022-08-14T08:19:30;6.80;;;6.22;;
72053;SDS011;59918;51.280;7.950;2022-08-14T08:21:59;7.38;;;6.78;;
72053;SDS011;59918;51.280;7.950;2022-08-14T08:24:24;8.15;;;6.80;;
72053;SDS011;59918;51.280;7.950;2022-08-14T08:26:49;7.13;;;6.63;;
72053;SDS011;59918;51.280;7.950;2022-08-14T08:29:18;6.72;;;6.20;;
72053;SDS011;59918;51.280;7.950;2022-08-14T08:31:45;7.60;;;6.85;;
72053;SDS011;59918;51.280;7.950;2022-08-14T08:34:13;7.32;;;6.82;;
72053;SDS011;59918;51.280;7.950;2022-08-14T08:36:39;8.10;;;7.30;;
72053;SDS011;59918;51.280;7.950;2022-08-14T08:39:05;7.40;;;6.70;;
72053;SDS011;59918;51.280;7.950;2022-08-14T08:41:40;7.57;;;6.78;;
72053;SDS011;59918;51.280;7.950;2022-08-14T08:44:10;7.45;;;6.63;;
72053;SDS011;59918;51.280;7.950;2022-08-14T08:46:35;7.85;;;7.05;;
72053;SDS011;59918;51.280;7.950;2022-08-14T08:49:01;7.07;;;6.53;;
72053;SDS011;59918;51.280;7.950;2022-08-14T08:51:31;7.50;;;6.88;;
72053;SDS011;59918;51.280;7.950;2022-08-14T08:53:59;6.57;;;6.17;;
72053;SDS011;59918;51.280;7.950;2022-08-14T08:56:34;6.93;;;6.43;;
72053;SDS011;59918;51.280;7.950;2022-08-14T08:59:00;7.03;;;6.43;;
72053;SDS011;59918;51.280;7.950;2022-08-14T09:01:26;6.72;;;5.88;;
72053;SDS011;59918;51.280;7.950;2022-08-14T09:04:00;5.80;;;5.40;;
72053;SDS011;59918;51.280;7.950;2022-08-14T09:06:25;5.00;;;4.70;;
72053;SDS011;59918;51.280;7.950;2022-08-14T09:08:51;5.63;;;5.28;;
72053;SDS011;59918;51.280;7.950;2022-08-14T09:11:16;5.00;;;4.70;;
72053;SDS011;59918;51.280;7.950;2022-08-14T09:13:41;5.55;;;5.22;;
72053;SDS011;59918;51.280;7.950;2022-08-14T09:16:07;5.65;;;5.25;;
72053;SDS011;59918;51.280;7.950;2022-08-14T09:18:32;6.40;;;5.57;;
72053;SDS011;59918;51.280;7.950;2022-08-14T09:20:58;5.38;;;5.07;;
72053;SDS011;59918;51.280;7.950;2022-08-14T09:23:23;5.35;;;4.95;;
72053;SDS011;59918;51.280;7.950;2022-08-14T09:25:49;5.67;;;5.27;;
72053;SDS011;59918;51.280;7.950;2022-08-14T09:28:16;5.43;;;5.03;;
72053;SDS011;59918;51.280;7.950;2022-08-14T09:30:51;5.07;;;4.70;;
72053;SDS011;59918;51.280;7.950;2022-08-14T09:39:06;4.63;;;4.35;;
72053;SDS011;59918;51.280;7.950;2022-08-14T09:47:10;5.28;;;4.88;;
72053;SDS011;59918;51.280;7.950;2022-08-14T09:49:56;5.15;;;4.65;;
72053;SDS011;59918;51.280;7.950;2022-08-14T09:52:21;4.72;;;4.30;;
72053;SDS011;59918;51.280;7.950;2022-08-14T09:54:48;4.78;;;4.38;;
72053;SDS011;59918;51.280;7.950;2022-08-14T09:57:33;5.07;;;4.65;;
72053;SDS011;59918;51.280;7.950;2022-08-14T10:00:08;5.05;;;4.75;;
72053;SDS011;59918;51.280;7.950;2022-08-14T10:02:35;4.75;;;4.35;;
72053;SDS011;59918;51.280;7.950;2022-08-14T10:05:03;4.47;;;4.18;;
72053;SDS011;59918;51.280;7.950;2022-08-14T10:07:33;4.47;;;4.18;;
72053;SDS011;59918;51.280;7.950;2022-08-14T10:10:10;4.47;;;4.15;;
72053;SDS011;59918;51.280;7.950;2022-08-14T10:12:45;5.70;;;5.30;;
72053;SDS011;59918;51.280;7.950;2022-08-14T10:15:17;6.38;;;4.80;;
72053;SDS011;59918;51.280;7.950;2022-08-14T10:17:45;5.18;;;4.88;;
72053;SDS011;59918;51.280;7.950;2022-08-14T10:20:11;4.50;;;4.20;;
72053;SDS011;59918;51.280;7.950;2022-08-14T10:22:36;4.20;;;4.00;;
72053;SDS011;59918;51.280;7.950;2022-08-14T10:25:14;4.00;;;3.80;;
72053;SDS011;59918;51.280;7.950;2022-08-14T10:27:40;3.70;;;3.50;;
72053;SDS011;59918;51.280;7.950;2022-08-14T10:30:16;4.00;;;3.80;;
72053;SDS011;59918;51.280;7.950;2022-08-14T10:32:43;4.15;;;3.95;;
72053;SDS011;59918;51.280;7.950;2022-08-14T10:35:10;4.20;;;3.67;;
72053;SDS011;59918;51.280;7.950;2022-08-14T10:37:41;4.13;;;3.72;;
72053;SDS011;59918;51.280;7.950;2022-08-14T10:40:07;4.80;;;4.40;;
72053;SDS011;59918;51.280;7.950;2022-08-14T10:42:36;4.50;;;4.25;;
72053;SDS011;59918;51.280;7.950;2022-08-14T10:45:15;4.22;;;3.78;;
72053;SDS011;59918;51.280;7.950;2022-08-14T10:48:00;3.65;;;3.45;;
72053;SDS011;59918;51.280;7.950;2022-08-14T10:50:33;3.88;;;3.67;;
72053;SDS011;59918;51.280;7.950;2022-08-14T10:52:59;3.65;;;3.33;;
72053;SDS011;59918;51.280;7.950;2022-08-14T10:55:38;3.60;;;3.40;;
72053;SDS011;59918;51.280;7.950;2022-08-14T10:58:03;3.88;;;3.67;;
72053;SDS011;59918;51.280;7.950;2022-08-14T11:00:30;3.47;;;3.22;;
72053;SDS011;59918;51.280;7.950;2022-08-14T11:02:58;5.35;;;3.25;;
72053;SDS011;59918;51.280;7.950;2022-08-14T11:05:25;3.25;;;2.70;;
72053;SDS011;59918;51.280;7.950;2022-08-14T11:08:02;3.25;;;3.05;;
72053;SDS011;59918;51.280;7.950;2022-08-14T11:13:22;2.20;;;2.10;;
72053;SDS011;59918;51.280;7.950;2022-08-14T11:15:52;3.05;;;2.75;;
72053;SDS011;59918;51.280;7.950;2022-08-14T11:18:19;3.63;;;3.33;;
72053;SDS011;59918;51.280;7.950;2022-08-14T11:20:47;4.18;;;3.55;;
72053;SDS011;59918;51.280;7.950;2022-08-14T11:23:17;3.40;;;3.20;;
72053;SDS011;59918;51.280;7.950;2022-08-14T11:25:45;3.53;;;3.33;;
72053;SDS011;59918;51.280;7.950;2022-08-14T11:28:11;3.67;;;3.47;;
72053;SDS011;59918;51.280;7.950;2022-08-14T11:30:37;3.58;;;3.38;;
72053;SDS011;59918;51.280;7.950;2022-08-14T11:33:03;3.95;;;3.70;;
72053;SDS011;59918;51.280;7.950;2022-08-14T11:35:28;3.85;;;3.55;;
72053;SDS011;59918;51.280;7.950;2022-08-14T11:38:00;3.93;;;3.63;;
72053;SDS011;59918;51.280;7.950;2022-08-14T11:40:28;3.90;;;3.65;;
72053;SDS011;59918;51.280;7.950;2022-08-14T11:42:55;4.22;;;3.92;;
72053;SDS011;59918;51.280;7.950;2022-08-14T11:45:22;4.22;;;3.97;;
72053;SDS011;59918;51.280;7.950;2022-08-14T11:47:49;4.20;;;4.00;;
72053;SDS011;59918;51.280;7.950;2022-08-14T11:50:19;3.50;;;3.20;;
72053;SDS011;59918;51.280;7.950;2022-08-14T11:52:49;4.10;;;3.72;;
72053;SDS011;59918;51.280;7.950;2022-08-14T11:55:15;3.95;;;3.75;;
72053;SDS011;59918;51.280;7.950;2022-08-14T11:57:41;4.45;;;4.15;;
72053;SDS011;59918;51.280;7.950;2022-08-14T12:00:08;3.83;;;3.63;;
72053;SDS011;59918;51.280;7.950;2022-08-14T12:02:48;3.70;;;3.40;;
72053;SDS011;59918;51.280;7.950;2022-08-14T12:05:28;3.90;;;3.70;;
72053;SDS011;59918;51.280;7.950;2022-08-14T12:08:00;3.80;;;3.60;;
72053;SDS011;59918;51.280;7.950;2022-08-14T12:10:27;3.47;;;3.28;;
72053;SDS011;59918;51.280;7.950;2022-08-14T12:12:53;3.88;;;3.58;;
72053;SDS011;59918;51.280;7.950;2022-08-14T12:15:26;4.00;;;3.80;;
72053;SDS011;59918;51.280;7.950;2022-08-14T12:17:53;3.95;;;3.72;;
72053;SDS011;59918;51.280;7.950;2022-08-14T12:20:18;4.70;;;3.97;;
72053;SDS011;59918;51.280;7.950;2022-08-14T12:22:53;4.18;;;3.88;;
72053;SDS011;59918;51.280;7.950;2022-08-14T12:25:20;3.72;;;3.42;;
72053;SDS011;59918;51.280;7.950;2022-08-14T12:27:49;3.58;;;3.38;;
72053;SDS011;59918;51.280;7.950;2022-08-14T12:33:18;3.37;;;3.17;;
72053;SDS011;59918;51.280;7.950;2022-08-14T12:35:43;3.47;;;3.28;;
72053;SDS011;59918;51.280;7.950;2022-08-14T12:38:12;3.60;;;3.40;;
72053;SDS011;59918;51.280;7.950;2022-08-14T12:40:44;3.00;;;2.90;;
72053;SDS011;59918;51.280;7.950;2022-08-14T12:43:14;3.55;;;3.22;;
72053;SDS011;59918;51.280;7.950;2022-08-14T12:45:44;2.95;;;2.85;;
72053;SDS011;59918;51.280;7.950;2022-08-14T12:48:11;3.10;;;2.80;;
72053;SDS011;59918;51.280;7.950;2022-08-14T12:50:37;2.90;;;2.80;;
72053;SDS011;59918;51.280;7.950;2022-08-14T12:53:04;3.33;;;3.20;;
72053;SDS011;59918;51.280;7.950;2022-08-14T12:55:32;3.40;;;3.17;;
72053;SDS011;59918;51.280;7.950;2022-08-14T12:57:58;3.30;;;3.00;;
72053;SDS011;59918;51.280;7.950;2022-08-14T13:00:24;3.25;;;3.05;;
72053;SDS011;59918;51.280;7.950;2022-08-14T13:02:51;3.47;;;3.27;;
72053;SDS011;59918;51.280;7.950;2022-08-14T13:05:22;3.40;;;3.10;;
72053;SDS011;59918;51.280;7.950;2022-08-14T13:07:49;2.90;;;2.80;;
72053;SDS011;59918;51.280;7.950;2022-08-14T13:10:16;2.97;;;2.70;;
72053;SDS011;59918;51.280;7.950;2022-08-14T13:12:46;2.80;;;2.65;;
72053;SDS011;59918;51.280;7.950;2022-08-14T13:15:13;2.97;;;2.65;;
72053;SDS011;59918;51.280;7.950;2022-08-14T13:17:40;2.85;;;2.50;;
72053;SDS011;59918;51.280;7.950;2022-08-14T13:20:08;2.60;;;2.50;;
72053;SDS011;59918;51.280;7.950;2022-08-14T13:22:36;2.65;;;2.50;;
72053;SDS011;59918;51.280;7.950;2022-08-14T13:25:04;2.60;;;2.50;;
72053;SDS011;59918;51.280;7.950;2022-08-14T13:27:30;2.97;;;2.63;;
72053;SDS011;59918;51.280;7.950;2022-08-14T13:29:56;2.85;;;2.65;;
72053;SDS011;59918;51.280;7.950;2022-08-14T13:32:23;2.72;;;2.53;;
72053;SDS011;59918;51.280;7.950;2022-08-14T13:34:49;2.60;;;2.40;;
72053;SDS011;59918;51.280;7.950;2022-08-14T13:37:17;3.22;;;3.03;;
72053;SDS011;59918;51.280;7.950;2022-08-14T13:39:45;2.80;;;2.70;;
72053;SDS011;59918;51.280;7.950;2022-08-14T13:42:18;7.97;;;2.75;;
72053;SDS011;59918;51.280;7.950;2022-08-14T13:44:44;2.80;;;2.60;;
72053;SDS011;59918;51.280;7.950;2022-08-14T13:47:09;3.00;;;2.90;;
72053;SDS011;59918;51.280;7.950;2022-08-14T13:49:35;2.95;;;2.75;;
72053;SDS011;59918;51.280;7.950;2022-08-14T13:52:00;3.10;;;2.90;;
72053;SDS011;59918;51.280;7.950;2022-08-14T13:54:28;2.90;;;2.80;;
72053;SDS011;59918;51.280;7.950;2022-08-14T13:56:54;3.10;;;2.90;;
72053;SDS011;59918;51.280;7.950;2022-08-14T13:59:24;3.00;;;2.70;;
72053;SDS011;59918;51.280;7.950;2022-08-14T14:01:53;2.75;;;2.65;;
72053;SDS011;59918;51.280;7.950;2022-08-14T14:04:26;2.90;;;2.70;;
72053;SDS011;59918;51.280;7.950;2022-08-14T14:06:54;5.72;;;2.90;;
72053;SDS011;59918;51.280;7.950;2022-08-14T14:09:20;2.95;;;2.80;;
72053;SDS011;59918;51.280;7.950;2022-08-14T14:11:50;3.13;;;2.92;;
72053;SDS011;59918;51.280;7.950;2022-08-14T14:14:17;2.50;;;2.40;;
72053;SDS011;59918;51.280;7.950;2022-08-14T14:16:44;3.40;;;3.20;;
72053;SDS011;59918;51.280;7.950;2022-08-14T14:19:10;2.90;;;2.75;;
72053;SDS011;59918;51.280;7.950;2022-08-14T14:21:36;3.53;;;3.22;;
72053;SDS011;59918;51.280;7.950;2022-08-14T14:24:01;2.78;;;2.67;;
72053;SDS011;59918;51.280;7.950;2022-08-14T14:26:27;3.08;;;2.92;;
72053;SDS011;59918;51.280;7.950;2022-08-14T14:28:54;3.35;;;3.05;;
72053;SDS011;59918;51.280;7.950;2022-08-14T14:31:22;2.67;;;2.58;;
72053;SDS011;59918;51.280;7.950;2022-08-14T14:33:50;2.70;;;2.60;;
72053;SDS011;59918;51.280;7.950;2022-08-14T14:36:20;3.58;;;3.28;;
72053;SDS011;59918;51.280;7.950;2022-08-14T14:38:54;3.50;;;3.08;;
72053;SDS011;59918;51.280;7.950;2022-08-14T14:41:25;3.38;;;3.22;;
72053;SDS011;59918;51.280;7.950;2022-08-14T14:43:58;4.47;;;3.17;;
72053;SDS011;59918;51.280;7.950;2022-08-14T14:46:25;3.15;;;2.95;;
72053;SDS011;59918;51.280;7.950;2022-08-14T14:48:51;2.75;;;2.65;;
72053;SDS011;59918;51.280;7.950;2022-08-14T14:51:18;2.90;;;2.70;;
72053;SDS011;59918;51.280;7.950;2022-08-14T14:53:44;3.33;;;3.13;;
72053;SDS011;59918;51.280;7.950;2022-08-14T14:56:10;2.63;;;2.53;;
72053;SDS011;59918;51.280;7.950;2022-08-14T14:58:36;4.80;;;2.80;;